createdAt,value
2023-05-10T00:00:27.760Z,23.64
2023-05-10T00:01:27.816Z,23.66
2023-05-10T00:02:27.947Z,23.68
2023-05-10T00:03:28.026Z,23.69
2023-05-10T00:04:27.981Z,23.70
2023-05-10T00:05:28.032Z,23.70
2023-05-10T00:06:28.094Z,23.71
2023-05-10T00:07:28.121Z,23.71
2023-05-10T00:08:28.148Z,23.72
2023-05-10T00:09:28.166Z,23.71
2023-05-10T00:10:28.215Z,23.71
2023-05-10T00:11:28.225Z,23.71
2023-05-10T00:12:28.253Z,23.71
2023-05-10T00:13:28.357Z,23.70
2023-05-10T00:14:28.264Z,23.71
2023-05-10T00:15:28.278Z,23.71
2023-05-10T00:16:28.368Z,23.71
2023-05-10T00:17:28.329Z,23.70
2023-05-10T00:18:28.301Z,23.71
2023-05-10T00:19:28.303Z,23.71
2023-05-10T00:20:28.304Z,23.71
2023-05-10T00:21:28.307Z,23.71
2023-05-10T00:22:28.319Z,23.71
2023-05-10T00:23:28.690Z,23.70
2023-05-10T00:24:28.675Z,23.71
2023-05-10T00:25:28.714Z,23.71
2023-05-10T00:26:28.331Z,23.70
2023-05-10T00:27:28.334Z,23.71
2023-05-10T00:28:28.346Z,23.70
2023-05-10T00:29:28.364Z,23.70
2023-05-10T00:30:28.345Z,23.70
2023-05-10T00:31:28.374Z,23.70
2023-05-10T00:32:28.370Z,23.70
2023-05-10T00:33:28.359Z,23.70
2023-05-10T00:34:28.382Z,23.70
2023-05-10T00:35:28.380Z,23.70
2023-05-10T00:36:28.361Z,23.69
2023-05-10T00:37:28.379Z,23.69
2023-05-10T00:38:28.784Z,23.70
2023-05-10T00:39:28.381Z,23.69
2023-05-10T00:40:28.389Z,23.69
2023-05-10T00:41:28.396Z,23.69
2023-05-10T00:42:28.398Z,23.69
2023-05-10T00:43:28.407Z,23.69
2023-05-10T00:44:28.411Z,23.69
2023-05-10T00:45:28.431Z,23.69
2023-05-10T00:46:28.534Z,23.69
2023-05-10T00:47:28.416Z,23.69
2023-05-10T00:48:28.424Z,23.69
2023-05-10T00:49:28.428Z,23.68
2023-05-10T00:50:28.542Z,23.69
2023-05-10T00:51:28.438Z,23.69
2023-05-10T00:52:28.431Z,23.68
2023-05-10T00:53:28.448Z,23.69
2023-05-10T00:54:28.450Z,23.68
2023-05-10T00:55:28.443Z,23.68
2023-05-10T00:56:28.451Z,23.67
2023-05-10T00:57:28.442Z,23.67
2023-05-10T00:58:28.459Z,23.68
2023-05-10T00:59:28.449Z,23.67
2023-05-10T01:00:28.446Z,23.67
2023-05-10T01:01:28.517Z,23.68
2023-05-10T01:02:28.536Z,23.68
2023-05-10T01:03:28.499Z,23.68
2023-05-10T01:04:28.465Z,23.67
2023-05-10T01:05:28.494Z,23.67
2023-05-10T01:06:28.463Z,23.67
2023-05-10T01:07:28.464Z,23.66
2023-05-10T01:08:28.472Z,23.66
2023-05-10T01:09:28.492Z,23.66
2023-05-10T01:10:28.485Z,23.66
2023-05-10T01:11:28.497Z,23.66
2023-05-10T01:12:28.550Z,23.66
2023-05-10T01:13:28.549Z,23.65
2023-05-10T01:14:28.507Z,23.66
2023-05-10T01:15:28.513Z,23.66
2023-05-10T01:16:28.573Z,23.66
2023-05-10T01:17:28.577Z,23.66
2023-05-10T01:18:28.525Z,23.65
2023-05-10T01:19:28.541Z,23.65
2023-05-10T01:20:28.532Z,23.65
2023-05-10T01:21:28.549Z,23.65
2023-05-10T01:22:28.546Z,23.66
2023-05-10T01:23:28.547Z,23.65
2023-05-10T01:24:28.604Z,23.64
2023-05-10T01:25:28.560Z,23.65
2023-05-10T01:26:28.576Z,23.65
2023-05-10T01:27:28.598Z,23.65
2023-05-10T01:28:28.592Z,23.65
2023-05-10T01:29:28.590Z,23.64
2023-05-10T01:30:28.602Z,23.64
2023-05-10T01:31:28.630Z,23.65
2023-05-10T01:32:28.638Z,23.65
2023-05-10T01:33:28.629Z,23.65
2023-05-10T01:34:28.612Z,23.65
2023-05-10T01:35:28.625Z,23.64
2023-05-10T01:36:28.631Z,23.64
2023-05-10T01:37:28.618Z,23.64
2023-05-10T01:38:28.797Z,23.64
2023-05-10T01:39:28.638Z,23.64
2023-05-10T01:40:28.648Z,23.64
2023-05-10T01:41:28.671Z,23.64
2023-05-10T01:42:28.667Z,23.63
2023-05-10T01:43:28.676Z,23.64
2023-05-10T01:44:28.691Z,23.64
2023-05-10T01:45:28.685Z,23.64
2023-05-10T01:46:28.776Z,23.64
2023-05-10T01:47:28.736Z,23.63
2023-05-10T01:48:28.765Z,23.62
2023-05-10T01:49:28.798Z,23.63
2023-05-10T01:50:28.764Z,23.63
2023-05-10T01:51:28.746Z,23.63
2023-05-10T01:52:28.753Z,23.63
2023-05-10T01:53:28.811Z,23.63
2023-05-10T01:54:28.761Z,23.62
2023-05-10T01:55:28.770Z,23.62
2023-05-10T01:56:28.783Z,23.62
2023-05-10T01:57:28.832Z,23.61
2023-05-10T01:58:28.761Z,23.62
2023-05-10T01:59:28.777Z,23.62
2023-05-10T02:00:28.815Z,23.62
2023-05-10T02:01:28.808Z,23.61
2023-05-10T02:02:28.849Z,23.62
2023-05-10T02:03:28.820Z,23.61
2023-05-10T02:04:28.804Z,23.61
2023-05-10T02:05:28.838Z,23.61
2023-05-10T02:06:28.803Z,23.60
2023-05-10T02:07:28.806Z,23.61
2023-05-10T02:08:28.812Z,23.61
2023-05-10T02:09:28.829Z,23.60
2023-05-10T02:10:28.833Z,23.61
2023-05-10T02:11:28.829Z,23.61
2023-05-10T02:12:28.909Z,23.60
2023-05-10T02:13:28.920Z,23.60
2023-05-10T02:14:28.878Z,23.60
2023-05-10T02:15:28.884Z,23.60
2023-05-10T02:16:28.906Z,23.60
2023-05-10T02:17:28.950Z,23.60
2023-05-10T02:18:28.909Z,23.60
2023-05-10T02:19:28.928Z,23.60
2023-05-10T02:20:28.949Z,23.60
2023-05-10T02:21:28.972Z,23.59
2023-05-10T02:22:28.948Z,23.60
2023-05-10T02:23:28.955Z,23.60
2023-05-10T02:24:28.960Z,23.59
2023-05-10T02:25:28.971Z,23.59
2023-05-10T02:26:28.978Z,23.59
2023-05-10T02:27:28.994Z,23.59
2023-05-10T02:28:28.994Z,23.59
2023-05-10T02:29:28.997Z,23.59
2023-05-10T02:30:29.014Z,23.59
2023-05-10T02:31:29.053Z,23.59
2023-05-10T02:32:29.055Z,23.58
2023-05-10T02:33:29.047Z,23.58
2023-05-10T02:34:29.056Z,23.59
2023-05-10T02:35:29.047Z,23.59
2023-05-10T02:36:29.055Z,23.59
2023-05-10T02:37:29.093Z,23.58
2023-05-10T02:38:29.102Z,23.59
2023-05-10T02:39:29.098Z,23.58
2023-05-10T02:40:29.116Z,23.58
2023-05-10T02:41:29.112Z,23.58
2023-05-10T02:42:29.132Z,23.59
2023-05-10T02:43:29.139Z,23.58
2023-05-10T02:44:29.153Z,23.57
2023-05-10T02:45:29.165Z,23.58
2023-05-10T02:46:29.201Z,23.58
2023-05-10T02:47:29.248Z,23.57
2023-05-10T02:48:29.200Z,23.57
2023-05-10T02:49:29.209Z,23.57
2023-05-10T02:50:29.212Z,23.57
2023-05-10T02:51:29.235Z,23.58
2023-05-10T02:52:29.235Z,23.57
2023-05-10T02:53:29.300Z,23.57
2023-05-10T02:54:29.258Z,23.56
2023-05-10T02:55:29.273Z,23.57
2023-05-10T02:56:29.286Z,23.56
2023-05-10T02:57:29.281Z,23.57
2023-05-10T02:58:29.290Z,23.57
2023-05-10T02:59:29.307Z,23.56
2023-05-10T03:00:29.312Z,23.56
2023-05-10T03:01:29.394Z,23.56
2023-05-10T03:02:29.355Z,23.56
2023-05-10T03:03:29.342Z,23.56
2023-05-10T03:04:29.412Z,23.56
2023-05-10T03:05:29.392Z,23.56
2023-05-10T03:06:29.375Z,23.55
2023-05-10T03:07:29.387Z,23.56
2023-05-10T03:08:29.453Z,23.56
2023-05-10T03:09:29.443Z,23.56
2023-05-10T03:10:29.436Z,23.56
2023-05-10T03:11:29.441Z,23.55
2023-05-10T03:12:29.452Z,23.55
2023-05-10T03:13:29.592Z,23.55
2023-05-10T03:14:29.470Z,23.54
2023-05-10T03:15:29.495Z,23.55
2023-05-10T03:16:29.569Z,23.55
2023-05-10T03:17:29.555Z,23.54
2023-05-10T03:18:29.520Z,23.55
2023-05-10T03:19:29.541Z,23.54
2023-05-10T03:20:29.531Z,23.55
2023-05-10T03:21:29.533Z,23.54
2023-05-10T03:22:29.544Z,23.54
2023-05-10T03:23:29.553Z,23.54
2023-05-10T03:24:29.563Z,23.54
2023-05-10T03:25:29.601Z,23.54
2023-05-10T03:26:29.587Z,23.54
2023-05-10T03:27:29.597Z,23.54
2023-05-10T03:28:29.600Z,23.53
2023-05-10T03:29:29.604Z,23.53
2023-05-10T03:30:29.614Z,23.53
2023-05-10T03:31:29.651Z,23.53
2023-05-10T03:32:29.655Z,23.53
2023-05-10T03:33:29.649Z,23.52
2023-05-10T03:34:29.665Z,23.53
2023-05-10T03:35:29.666Z,23.53
2023-05-10T03:36:29.682Z,23.53
2023-05-10T03:37:29.691Z,23.53
2023-05-10T03:38:30.612Z,23.53
2023-05-10T03:39:29.743Z,23.53
2023-05-10T03:40:29.744Z,23.53
2023-05-10T03:41:29.780Z,23.52
2023-05-10T03:42:29.759Z,23.53
2023-05-10T03:43:29.769Z,23.52
2023-05-10T03:44:29.811Z,23.52
2023-05-10T03:45:29.802Z,23.52
2023-05-10T03:46:29.833Z,23.52
2023-05-10T03:47:29.852Z,23.52
2023-05-10T03:48:30.183Z,23.52
2023-05-10T03:49:30.170Z,23.52
2023-05-10T03:50:30.161Z,23.52
2023-05-10T03:51:30.133Z,23.52
2023-05-10T03:52:30.122Z,23.51
2023-05-10T03:53:30.106Z,23.52
2023-05-10T03:54:30.097Z,23.52
2023-05-10T03:55:30.074Z,23.52
2023-05-10T03:56:30.064Z,23.51
2023-05-10T03:57:30.093Z,23.51
2023-05-10T03:58:30.032Z,23.51
2023-05-10T03:59:30.021Z,23.51
2023-05-10T04:00:29.999Z,23.51
2023-05-10T04:01:30.016Z,23.51
2023-05-10T04:02:30.102Z,23.51
2023-05-10T04:03:30.109Z,23.51
2023-05-10T04:04:30.054Z,23.50
2023-05-10T04:05:30.067Z,23.51
2023-05-10T04:06:30.131Z,23.50
2023-05-10T04:07:30.103Z,23.50
2023-05-10T04:08:30.126Z,23.51
2023-05-10T04:09:30.136Z,23.50
2023-05-10T04:10:30.161Z,23.51
2023-05-10T04:11:30.170Z,23.50
2023-05-10T04:12:30.184Z,23.50
2023-05-10T04:13:30.263Z,23.50
2023-05-10T04:14:30.204Z,23.50
2023-05-10T04:15:30.234Z,23.50
2023-05-10T04:16:30.296Z,23.50
2023-05-10T04:17:30.348Z,23.50
2023-05-10T04:18:30.270Z,23.50
2023-05-10T04:19:30.294Z,23.49
2023-05-10T04:20:30.302Z,23.49
2023-05-10T04:21:30.323Z,23.50
2023-05-10T04:22:30.334Z,23.50
2023-05-10T04:23:30.346Z,23.50
2023-05-10T04:24:30.368Z,23.50
2023-05-10T04:25:30.386Z,23.50
2023-05-10T04:26:30.415Z,23.50
2023-05-10T04:27:30.408Z,23.49
2023-05-10T04:28:30.413Z,23.49
2023-05-10T04:29:30.457Z,23.49
2023-05-10T04:30:30.526Z,23.49
2023-05-10T04:31:30.838Z,23.49
2023-05-10T04:32:30.935Z,23.49
2023-05-10T04:33:30.865Z,23.49
2023-05-10T04:34:30.878Z,23.49
2023-05-10T04:35:30.882Z,23.49
2023-05-10T04:36:30.875Z,23.48
2023-05-10T04:37:30.882Z,23.48
2023-05-10T04:38:30.878Z,23.49
2023-05-10T04:39:30.882Z,23.48
2023-05-10T04:40:30.876Z,23.49
2023-05-10T04:41:30.874Z,23.48
2023-05-10T04:42:30.877Z,23.48
2023-05-10T04:43:30.871Z,23.49
2023-05-10T04:44:30.884Z,23.49
2023-05-10T04:45:30.903Z,23.48
2023-05-10T04:46:30.911Z,23.48
2023-05-10T04:47:30.914Z,23.48
2023-05-10T04:48:30.877Z,23.48
2023-05-10T04:49:30.903Z,23.48
2023-05-10T04:50:30.899Z,23.47
2023-05-10T04:51:30.909Z,23.48
2023-05-10T04:52:31.787Z,23.48
2023-05-10T04:53:30.903Z,23.48
2023-05-10T04:54:30.909Z,23.48
2023-05-10T04:55:30.909Z,23.48
2023-05-10T04:56:30.794Z,23.48
2023-05-10T04:57:30.816Z,23.48
2023-05-10T04:58:30.837Z,23.48
2023-05-10T04:59:30.848Z,23.48
2023-05-10T05:00:30.864Z,23.48
2023-05-10T05:01:30.936Z,23.48
2023-05-10T05:02:31.045Z,23.48
2023-05-10T05:03:31.025Z,23.47
2023-05-10T05:04:30.920Z,23.47
2023-05-10T05:05:30.927Z,23.48
2023-05-10T05:06:30.940Z,23.47
2023-05-10T05:07:30.964Z,23.48
2023-05-10T05:08:30.985Z,23.47
2023-05-10T05:09:31.005Z,23.48
2023-05-10T05:10:31.017Z,23.48
2023-05-10T05:11:31.017Z,23.47
2023-05-10T05:12:31.031Z,23.47
2023-05-10T05:13:31.089Z,23.48
2023-05-10T05:14:31.068Z,23.49
2023-05-10T05:15:31.081Z,23.48
2023-05-10T05:16:31.196Z,23.47
2023-05-10T05:17:31.188Z,23.47
2023-05-10T05:18:31.132Z,23.47
2023-05-10T05:19:31.378Z,23.46
2023-05-10T05:20:31.183Z,23.47
2023-05-10T05:21:31.185Z,23.48
2023-05-10T05:22:31.276Z,23.47
2023-05-10T05:23:31.216Z,23.46
2023-05-10T05:24:31.229Z,23.47
2023-05-10T05:25:31.245Z,23.47
2023-05-10T05:26:31.270Z,23.47
2023-05-10T05:27:31.280Z,23.47
2023-05-10T05:28:31.289Z,23.48
2023-05-10T05:29:31.304Z,23.47
2023-05-10T05:30:31.331Z,23.47
2023-05-10T05:31:31.484Z,23.46
2023-05-10T05:32:31.375Z,23.47
2023-05-10T05:33:31.372Z,23.47
2023-05-10T05:34:31.386Z,23.47
2023-05-10T05:35:31.388Z,23.47
2023-05-10T05:36:31.391Z,23.47
2023-05-10T05:37:31.399Z,23.47
2023-05-10T05:38:31.430Z,23.47
2023-05-10T05:39:31.447Z,23.47
2023-05-10T05:40:31.451Z,23.47
2023-05-10T05:41:31.478Z,23.47
2023-05-10T05:42:31.512Z,23.47
2023-05-10T05:43:31.504Z,23.47
2023-05-10T05:44:31.905Z,23.46
2023-05-10T05:45:31.561Z,23.47
2023-05-10T05:46:31.524Z,23.47
2023-05-10T05:47:31.714Z,23.47
2023-05-10T05:48:31.605Z,23.47
2023-05-10T05:49:32.995Z,23.47
2023-05-10T05:50:31.882Z,23.47
2023-05-10T05:51:31.601Z,23.47
2023-05-10T05:52:31.615Z,23.47
2023-05-10T05:53:31.655Z,23.47
2023-05-10T05:54:31.888Z,23.47
2023-05-10T05:55:31.665Z,23.48
2023-05-10T05:56:31.690Z,23.47
2023-05-10T05:57:31.679Z,23.47
2023-05-10T05:58:31.901Z,23.47
2023-05-10T05:59:31.893Z,23.47
2023-05-10T06:00:31.728Z,23.47
2023-05-10T06:01:31.741Z,23.47
2023-05-10T06:02:31.835Z,23.47
2023-05-10T06:03:31.886Z,23.47
2023-05-10T06:04:35.159Z,23.47
2023-05-10T06:05:31.749Z,23.47
2023-05-10T06:06:31.749Z,23.47
2023-05-10T06:07:31.891Z,23.47
2023-05-10T06:08:31.729Z,23.47
2023-05-10T06:09:31.726Z,23.47
2023-05-10T06:10:31.730Z,23.47
2023-05-10T06:11:31.699Z,23.47
2023-05-10T06:12:31.889Z,23.47
2023-05-10T06:13:31.745Z,23.47
2023-05-10T06:14:31.988Z,23.47
2023-05-10T06:15:31.943Z,23.47
2023-05-10T06:16:32.015Z,23.48
2023-05-10T06:17:32.071Z,23.47
2023-05-10T06:18:31.947Z,23.47
2023-05-10T06:19:31.944Z,23.47
2023-05-10T06:20:32.543Z,23.48
2023-05-10T06:21:31.944Z,23.48
2023-05-10T06:22:31.949Z,23.47
2023-05-10T06:23:31.943Z,23.47
2023-05-10T06:24:32.423Z,23.47
2023-05-10T06:25:31.968Z,23.47
2023-05-10T06:26:31.611Z,23.48
2023-05-10T06:27:31.622Z,23.48
2023-05-10T06:28:31.628Z,23.47
2023-05-10T06:29:31.901Z,23.47
2023-05-10T06:30:31.952Z,23.48
2023-05-10T06:31:31.964Z,23.48
2023-05-10T06:32:31.976Z,23.48
2023-05-10T06:33:31.946Z,23.49
2023-05-10T06:34:32.405Z,23.49
2023-05-10T06:35:31.984Z,23.49
2023-05-10T06:36:32.001Z,23.49
2023-05-10T06:37:31.945Z,23.49
2023-05-10T06:38:32.399Z,23.50
2023-05-10T06:39:32.005Z,23.50
2023-05-10T06:40:32.012Z,23.50
2023-05-10T06:41:31.962Z,23.50
2023-05-10T06:42:31.950Z,23.50
2023-05-10T06:43:32.405Z,23.51
2023-05-10T06:44:32.436Z,23.50
2023-05-10T06:45:31.971Z,23.50
2023-05-10T06:46:32.006Z,23.51
2023-05-10T06:47:32.017Z,23.51
2023-05-10T06:48:31.915Z,23.51
2023-05-10T06:49:32.408Z,23.51
2023-05-10T06:50:32.410Z,23.52
2023-05-10T06:51:31.954Z,23.52
2023-05-10T06:52:32.015Z,23.52
2023-05-10T06:53:32.975Z,23.52
2023-05-10T06:54:32.415Z,23.53
2023-05-10T06:55:39.468Z,23.53
2023-05-10T06:56:32.020Z,23.52
2023-05-10T06:57:32.402Z,23.52
2023-05-10T06:58:32.446Z,23.53
2023-05-10T06:59:32.058Z,23.53
2023-05-10T07:00:32.122Z,23.53
2023-05-10T07:01:32.020Z,23.53
2023-05-10T07:02:32.010Z,23.53
2023-05-10T07:03:31.958Z,23.54
2023-05-10T07:04:32.496Z,23.54
2023-05-10T07:05:31.954Z,23.54
2023-05-10T07:06:33.988Z,23.55
2023-05-10T07:07:31.932Z,23.55
2023-05-10T07:08:31.953Z,23.55
2023-05-10T07:09:31.964Z,23.56
2023-05-10T07:10:31.927Z,23.56
2023-05-10T07:11:31.900Z,23.56
2023-05-10T07:12:31.940Z,23.57
2023-05-10T07:13:31.921Z,23.57
2023-05-10T07:14:31.885Z,23.57
2023-05-10T07:15:31.892Z,23.57
2023-05-10T07:16:31.995Z,23.58
2023-05-10T07:17:32.047Z,23.58
2023-05-10T07:18:31.949Z,23.57
2023-05-10T07:19:31.849Z,23.58
2023-05-10T07:20:31.849Z,23.58
2023-05-10T07:21:32.887Z,23.58
2023-05-10T07:22:38.796Z,23.59
2023-05-10T07:23:31.816Z,23.58
2023-05-10T07:24:31.845Z,23.59
2023-05-10T07:25:31.807Z,23.58
2023-05-10T07:26:31.931Z,23.59
2023-05-10T07:27:31.903Z,23.59
2023-05-10T07:28:31.798Z,23.59
2023-05-10T07:29:31.966Z,23.59
2023-05-10T07:30:31.819Z,23.60
2023-05-10T07:31:31.827Z,23.60
2023-05-10T07:32:31.987Z,23.60
2023-05-10T07:33:31.752Z,23.61
2023-05-10T07:34:31.752Z,23.62
2023-05-10T07:35:31.972Z,23.63
2023-05-10T07:36:31.741Z,23.63
2023-05-10T07:37:31.750Z,23.63
2023-05-10T07:38:31.720Z,23.64
2023-05-10T07:39:32.702Z,23.63
2023-05-10T07:40:32.090Z,23.65
2023-05-10T07:41:33.900Z,23.65
2023-05-10T07:42:31.727Z,23.66
2023-05-10T07:43:32.042Z,23.66
2023-05-10T07:44:32.479Z,23.68
2023-05-10T07:45:39.414Z,23.69
2023-05-10T07:46:31.736Z,23.69
2023-05-10T07:47:35.166Z,23.70
2023-05-10T07:48:34.859Z,23.71
2023-05-10T07:49:31.970Z,23.71
2023-05-10T07:50:32.007Z,23.73
2023-05-10T07:51:31.651Z,23.74
2023-05-10T07:52:31.625Z,23.74
2023-05-10T07:53:31.633Z,23.75
2023-05-10T07:54:31.999Z,23.76
2023-05-10T07:55:31.585Z,23.77
2023-05-10T07:56:31.620Z,23.79
2023-05-10T07:57:32.569Z,23.81
2023-05-10T07:58:31.575Z,23.83
2023-05-10T07:59:35.177Z,23.84
2023-05-10T08:00:31.591Z,23.85
2023-05-10T08:01:31.941Z,23.86
2023-05-10T08:02:31.612Z,23.87
2023-05-10T08:03:31.615Z,23.88
2023-05-10T08:04:31.577Z,23.90
2023-05-10T08:05:33.125Z,23.92
2023-05-10T08:06:32.094Z,23.93
2023-05-10T08:07:31.507Z,23.94
2023-05-10T08:08:31.533Z,23.97
2023-05-10T08:09:31.489Z,23.98
2023-05-10T08:10:31.945Z,24.00
2023-05-10T08:11:32.798Z,24.02
2023-05-10T08:12:31.500Z,24.02
2023-05-10T08:13:31.465Z,24.03
2023-05-10T08:14:31.462Z,24.05
2023-05-10T08:15:31.445Z,24.06
2023-05-10T08:16:31.538Z,24.06
2023-05-10T08:17:31.507Z,24.06
2023-05-10T08:18:31.441Z,24.08
2023-05-10T08:19:31.419Z,24.07
2023-05-10T08:20:31.415Z,24.08
2023-05-10T08:21:31.411Z,24.09
2023-05-10T08:22:31.399Z,24.10
2023-05-10T08:23:31.388Z,24.11
2023-05-10T08:24:31.395Z,24.11
2023-05-10T08:25:31.452Z,24.13
2023-05-10T08:26:31.376Z,24.13
2023-05-10T08:27:31.366Z,24.14
2023-05-10T08:28:31.392Z,24.14
2023-05-10T08:29:42.336Z,24.15
2023-05-10T08:30:31.348Z,24.15
2023-05-10T08:31:31.427Z,24.16
2023-05-10T08:32:31.338Z,24.17
2023-05-10T08:33:31.514Z,24.18
2023-05-10T08:34:31.322Z,24.18
2023-05-10T08:35:31.492Z,24.19
2023-05-10T08:36:31.311Z,24.19
2023-05-10T08:37:31.308Z,24.20
2023-05-10T08:38:31.293Z,24.21
2023-05-10T08:39:31.311Z,24.21
2023-05-10T08:40:31.638Z,24.21
2023-05-10T08:41:31.510Z,24.21
2023-05-10T08:42:31.291Z,24.22
2023-05-10T08:43:31.489Z,24.22
2023-05-10T08:44:49.448Z,24.23
2023-05-10T08:45:31.526Z,24.22
2023-05-10T08:46:31.357Z,24.24
2023-05-10T08:47:31.351Z,24.25
2023-05-10T08:48:31.227Z,24.24
2023-05-10T08:49:31.243Z,24.24
2023-05-10T08:50:31.472Z,24.24
2023-05-10T08:51:31.212Z,24.24
2023-05-10T08:52:31.697Z,24.24
2023-05-10T08:53:31.188Z,24.24
2023-05-10T08:54:31.200Z,24.23
2023-05-10T08:55:31.460Z,24.23
2023-05-10T08:56:31.214Z,24.23
2023-05-10T08:57:31.191Z,24.22
2023-05-10T08:58:31.482Z,24.21
2023-05-10T08:59:31.190Z,24.21
2023-05-10T09:00:31.243Z,24.21
2023-05-10T09:01:31.195Z,24.20
2023-05-10T09:02:31.164Z,24.19
2023-05-10T09:03:31.137Z,24.20
2023-05-10T09:04:31.218Z,24.19
2023-05-10T09:05:31.322Z,24.18
2023-05-10T09:06:31.113Z,24.19
2023-05-10T09:07:31.104Z,24.18
2023-05-10T09:08:31.091Z,24.18
2023-05-10T09:09:31.486Z,24.17
2023-05-10T09:10:31.206Z,24.17
2023-05-10T09:11:34.492Z,24.17
2023-05-10T09:12:31.207Z,24.16
2023-05-10T09:13:31.197Z,24.17
2023-05-10T09:14:31.207Z,24.16
2023-05-10T09:15:31.483Z,24.17
2023-05-10T09:16:31.228Z,24.16
2023-05-10T09:17:31.204Z,24.16
2023-05-10T09:18:31.183Z,24.15
2023-05-10T09:19:31.153Z,24.15
2023-05-10T09:20:31.475Z,24.15
2023-05-10T09:21:31.148Z,24.15
2023-05-10T09:22:31.137Z,24.15
2023-05-10T09:23:31.119Z,24.14
2023-05-10T09:24:31.111Z,24.15
2023-05-10T09:25:31.484Z,24.14
2023-05-10T09:26:31.139Z,24.14
2023-05-10T09:27:31.102Z,24.14
2023-05-10T09:28:31.111Z,24.14
2023-05-10T09:29:31.483Z,24.13
2023-05-10T09:30:31.084Z,24.13
2023-05-10T09:31:31.123Z,24.13
2023-05-10T09:32:31.121Z,24.12
2023-05-10T09:33:46.652Z,24.12
2023-05-10T09:34:31.534Z,24.11
2023-05-10T09:35:31.489Z,24.12
2023-05-10T09:36:31.067Z,24.12
2023-05-10T09:37:31.042Z,24.12
2023-05-10T09:38:31.477Z,24.12
2023-05-10T09:39:31.029Z,24.12
2023-05-10T09:40:31.014Z,24.12
2023-05-10T09:41:31.017Z,24.12
2023-05-10T09:42:31.008Z,24.12
2023-05-10T09:43:31.069Z,24.11
2023-05-10T09:44:30.986Z,24.11
2023-05-10T09:45:31.502Z,24.11
2023-05-10T09:46:31.033Z,24.12
2023-05-10T09:47:30.999Z,24.11
2023-05-10T09:48:30.988Z,24.11
2023-05-10T09:49:30.993Z,24.11
2023-05-10T09:50:30.952Z,24.11
2023-05-10T09:51:30.940Z,24.11
2023-05-10T09:52:30.977Z,24.12
2023-05-10T09:53:31.485Z,24.12
2023-05-10T09:54:31.116Z,24.11
2023-05-10T09:55:31.153Z,24.11
2023-05-10T09:56:31.503Z,24.13
2023-05-10T09:57:32.355Z,24.15
2023-05-10T09:58:31.219Z,24.15
2023-05-10T09:59:31.248Z,24.17
2023-05-10T10:00:31.489Z,24.18
2023-05-10T10:01:32.243Z,24.19
2023-05-10T10:02:31.255Z,24.20
2023-05-10T10:03:31.191Z,24.21
2023-05-10T10:04:31.291Z,24.22
2023-05-10T10:05:31.543Z,24.24
2023-05-10T10:06:31.172Z,24.24
2023-05-10T10:07:31.159Z,24.25
2023-05-10T10:08:31.184Z,24.24
2023-05-10T10:09:31.167Z,24.22
2023-05-10T10:10:31.500Z,24.21
2023-05-10T10:11:31.194Z,24.20
2023-05-10T10:12:31.256Z,24.18
2023-05-10T10:13:31.291Z,24.17
2023-05-10T10:14:31.367Z,24.16
2023-05-10T10:15:31.511Z,24.15
2023-05-10T10:16:31.494Z,24.14
2023-05-10T10:17:31.512Z,24.13
2023-05-10T10:18:32.026Z,24.13
2023-05-10T10:19:31.616Z,24.12
2023-05-10T10:20:32.038Z,24.10
2023-05-10T10:21:31.724Z,24.09
2023-05-10T10:22:31.792Z,24.09
2023-05-10T10:23:31.836Z,24.07
2023-05-10T10:24:31.934Z,24.06
2023-05-10T10:25:32.066Z,24.06
2023-05-10T10:26:32.057Z,24.05
2023-05-10T10:27:32.107Z,24.04
2023-05-10T10:28:32.146Z,24.04
2023-05-10T10:29:32.198Z,24.04
2023-05-10T10:30:32.532Z,24.03
2023-05-10T10:31:32.334Z,24.06
2023-05-10T10:32:32.416Z,24.08
2023-05-10T10:33:32.506Z,24.09
2023-05-10T10:34:32.617Z,24.12
2023-05-10T10:35:33.044Z,24.13
2023-05-10T10:36:32.602Z,24.14
2023-05-10T10:37:32.615Z,24.17
2023-05-10T10:38:32.659Z,24.18
2023-05-10T10:39:33.117Z,24.20
2023-05-10T10:40:34.902Z,24.22
2023-05-10T10:41:33.006Z,24.23
2023-05-10T10:42:32.765Z,24.26
2023-05-10T10:43:33.207Z,24.27
2023-05-10T10:44:32.711Z,24.29
2023-05-10T10:45:33.099Z,24.31
2023-05-10T10:46:32.738Z,24.32
2023-05-10T10:47:32.727Z,24.34
2023-05-10T10:48:32.686Z,24.36
2023-05-10T10:49:32.683Z,24.38
2023-05-10T10:50:32.687Z,24.39
2023-05-10T10:51:32.670Z,24.41
2023-05-10T10:52:32.760Z,24.42
2023-05-10T10:53:32.686Z,24.43
2023-05-10T10:54:32.660Z,24.46
2023-05-10T10:55:32.639Z,24.46
2023-05-10T10:56:32.633Z,24.48
2023-05-10T10:57:33.014Z,24.48
2023-05-10T10:58:32.622Z,24.50
2023-05-10T10:59:32.609Z,24.51
2023-05-10T11:00:32.620Z,24.52
2023-05-10T11:01:32.641Z,24.52
2023-05-10T11:02:32.615Z,24.54
2023-05-10T11:03:33.262Z,24.55
2023-05-10T11:04:33.089Z,24.56
2023-05-10T11:05:32.597Z,24.57
2023-05-10T11:06:32.561Z,24.58
2023-05-10T11:07:32.560Z,24.59
2023-05-10T11:08:32.583Z,24.61
2023-05-10T11:09:33.049Z,24.61
2023-05-10T11:10:32.544Z,24.59
2023-05-10T11:11:32.532Z,24.55
2023-05-10T11:12:32.574Z,24.53
2023-05-10T11:13:32.511Z,24.53
2023-05-10T11:14:32.507Z,24.51
2023-05-10T11:15:32.510Z,24.51
2023-05-10T11:16:32.539Z,24.50
2023-05-10T11:17:32.570Z,24.50
2023-05-10T11:18:32.493Z,24.50
2023-05-10T11:19:32.485Z,24.50
2023-05-10T11:20:32.464Z,24.50
2023-05-10T11:21:32.531Z,24.51
2023-05-10T11:22:32.728Z,24.51
2023-05-10T11:23:32.456Z,24.51
2023-05-10T11:24:32.502Z,24.51
2023-05-10T11:25:32.510Z,24.52
2023-05-10T11:26:32.522Z,24.52
2023-05-10T11:27:32.541Z,24.53
2023-05-10T11:28:32.560Z,24.53
2023-05-10T11:29:32.605Z,24.53
2023-05-10T11:30:32.622Z,24.53
2023-05-10T11:31:32.615Z,24.54
2023-05-10T11:32:32.707Z,24.54
2023-05-10T11:33:32.664Z,24.53
2023-05-10T11:34:32.659Z,24.55
2023-05-10T11:35:32.669Z,24.55
2023-05-10T11:36:32.689Z,24.54
2023-05-10T11:37:32.709Z,24.55
2023-05-10T11:38:32.737Z,24.55
2023-05-10T11:39:32.757Z,24.56
2023-05-10T11:40:32.798Z,24.55
2023-05-10T11:41:32.792Z,24.55
2023-05-10T11:42:32.794Z,24.55
2023-05-10T11:43:33.052Z,24.55
2023-05-10T11:44:32.874Z,24.55
2023-05-10T11:45:32.849Z,24.55
2023-05-10T11:46:33.135Z,24.55
2023-05-10T11:47:32.912Z,24.56
2023-05-10T11:48:32.867Z,24.55
2023-05-10T11:49:32.880Z,24.55
2023-05-10T11:50:32.892Z,24.55
2023-05-10T11:51:32.911Z,24.55
2023-05-10T11:52:32.923Z,24.56
2023-05-10T11:53:32.958Z,24.54
2023-05-10T11:54:32.967Z,24.48
2023-05-10T11:55:33.023Z,24.43
2023-05-10T11:56:33.070Z,24.39
2023-05-10T11:57:33.084Z,24.38
2023-05-10T11:58:33.557Z,24.38
2023-05-10T11:59:33.139Z,24.38
2023-05-10T12:00:33.182Z,24.40
2023-05-10T12:01:33.214Z,24.41
2023-05-10T12:02:33.310Z,24.43
2023-05-10T12:03:33.531Z,24.46
2023-05-10T12:04:33.430Z,24.49
2023-05-10T12:05:33.389Z,24.50
2023-05-10T12:06:33.616Z,24.52
2023-05-10T12:07:33.375Z,24.51
2023-05-10T12:08:33.460Z,24.51
2023-05-10T12:09:43.388Z,24.51
2023-05-10T12:10:33.448Z,24.50
2023-05-10T12:11:33.562Z,24.50
2023-05-10T12:12:33.434Z,24.50
2023-05-10T12:13:33.379Z,24.50
2023-05-10T12:14:33.367Z,24.49
2023-05-10T12:15:33.364Z,24.49
2023-05-10T12:16:33.426Z,24.48
2023-05-10T12:17:33.614Z,24.48
2023-05-10T12:18:33.339Z,24.48
2023-05-10T12:19:33.297Z,24.47
2023-05-10T12:20:33.289Z,24.47
2023-05-10T12:21:33.283Z,24.47
2023-05-10T12:22:33.284Z,24.46
2023-05-10T12:23:33.298Z,24.46
2023-05-10T12:24:36.461Z,24.46
2023-05-10T12:25:33.366Z,24.46
2023-05-10T12:26:34.250Z,24.45
2023-05-10T12:27:33.311Z,24.45
2023-05-10T12:28:33.272Z,24.44
2023-05-10T12:29:33.230Z,24.45
2023-05-10T12:30:33.226Z,24.44
2023-05-10T12:31:33.259Z,24.43
2023-05-10T12:32:33.231Z,24.44
2023-05-10T12:33:33.203Z,24.43
2023-05-10T12:34:33.204Z,24.42
2023-05-10T12:35:33.180Z,24.42
2023-05-10T12:36:33.554Z,24.42
2023-05-10T12:37:33.165Z,24.41
2023-05-10T12:38:33.172Z,24.41
2023-05-10T12:39:33.556Z,24.41
2023-05-10T12:40:33.172Z,24.40
2023-05-10T12:41:33.135Z,24.40
2023-05-10T12:42:33.172Z,24.39
2023-05-10T12:43:33.197Z,24.39
2023-05-10T12:44:33.250Z,24.39
2023-05-10T12:45:33.313Z,24.38
2023-05-10T12:46:33.466Z,24.38
2023-05-10T12:47:33.370Z,24.38
2023-05-10T12:48:33.362Z,24.38
2023-05-10T12:49:33.410Z,24.38
2023-05-10T12:50:33.412Z,24.37
2023-05-10T12:51:33.442Z,24.36
2023-05-10T12:52:33.527Z,24.37